Time;durP1;ratioP1;P1;durP2;ratioP2;P2;SDS_P1;SDS_P2;PMS_P1;PMS_P2;Temp;Humidity;BMP_temperature;BMP_pressure;BME280_temperature;BME280_humidity;BME280_pressure;Samples;Min_cycle;Max_cycle;Signal;HPM_P1;HPM_P2
2022/07/27 07:05:06;;;;;;;1.10;0.70;;;;;;;;;;10543073;28;20036;-85
2022/07/27 07:10:07;;;;;;;2.17;0.82;;;;;;;;;;10517988;28;20097;-83
2022/07/27 07:15:09;;;;;;;1.52;0.80;;;;;;;;;;10558805;28;20096;-83
2022/07/27 07:20:13;;;;;;;1.73;0.70;;;;;;;;;;10562364;28;20020;-83
2022/07/27 07:25:14;;;;;;;1.83;0.95;;;;;;;;;;10558902;28;20027;-83
2022/07/27 07:30:15;;;;;;;3.15;1.10;;;;;;;;;;10559767;28;20032;-82
2022/07/27 07:35:17;;;;;;;2.00;0.98;;;;;;;;;;10560313;28;20127;-83
2022/07/27 07:40:18;;;;;;;2.20;0.80;;;;;;;;;;10559449;28;20035;-83
2022/07/27 07:45:20;;;;;;;3.40;0.90;;;;;;;;;;10559837;28;20028;-85
2022/07/27 07:50:22;;;;;;;2.72;1.52;;;;;;;;;;10558378;28;20024;-84
2022/07/27 07:55:24;;;;;;;1.95;1.00;;;;;;;;;;10561818;28;20448;-85
2022/07/27 08:00:25;;;;;;;2.65;1.00;;;;;;;;;;10559033;28;20043;-84
2022/07/27 08:05:26;;;;;;;3.75;1.08;;;;;;;;;;10556887;28;20035;-84
2022/07/27 08:10:28;;;;;;;4.43;1.20;;;;;;;;;;10558738;28;20024;-84
2022/07/27 08:15:29;;;;;;;1.25;0.80;;;;;;;;;;10558550;28;20020;-84
2022/07/27 08:20:32;;;;;;;2.70;0.82;;;;;;;;;;10563567;28;20123;-83
2022/07/27 08:25:33;;;;;;;2.22;0.80;;;;;;;;;;10560402;28;20055;-84
2022/07/27 08:30:34;;;;;;;2.25;1.00;;;;;;;;;;10566976;28;20049;-85
2022/07/27 08:35:35;;;;;;;2.80;1.08;;;;;;;;;;10565864;28;20035;-84
2022/07/27 08:40:37;;;;;;;2.17;0.90;;;;;;;;;;10569642;28;20047;-85
2022/07/27 08:45:40;;;;;;;2.45;1.10;;;;;;;;;;10578458;28;20066;-82
2022/07/27 08:50:41;;;;;;;3.05;1.00;;;;;;;;;;10558708;28;20026;-84
2022/07/27 08:55:56;;;;;;;2.33;1.00;;;;;;;;;;10538161;28;20421;-85
2022/07/27 09:00:57;;;;;;;4.00;2.70;;;;;;;;;;10557824;28;20067;-85
2022/07/27 09:05:58;;;;;;;3.38;1.85;;;;;;;;;;10558728;28;20127;-85
2022/07/27 09:11:10;;;;;;;2.80;1.40;;;;;;;;;;10563420;28;20032;-85
2022/07/27 09:16:14;;;;;;;2.95;1.80;;;;;;;;;;10560988;28;20573;-85
2022/07/27 09:21:23;;;;;;;2.20;1.58;;;;;;;;;;10559607;28;20026;-85
2022/07/27 09:26:26;;;;;;;3.50;1.48;;;;;;;;;;10572673;28;20024;-82
2022/07/27 09:31:27;;;;;;;3.08;1.20;;;;;;;;;;10577177;28;20040;-86
2022/07/27 09:36:30;;;;;;;4.30;1.48;;;;;;;;;;10538017;28;20024;-86
2022/07/27 09:41:41;;;;;;;3.00;1.13;;;;;;;;;;10554159;28;20553;-84
2022/07/27 09:46:43;;;;;;;3.83;1.10;;;;;;;;;;10561013;28;20407;-86
2022/07/27 09:51:46;;;;;;;4.13;1.00;;;;;;;;;;10557731;28;20027;-86
2022/07/27 09:56:57;;;;;;;5.07;2.17;;;;;;;;;;10555288;28;20104;-84
2022/07/27 10:02:00;;;;;;;3.45;2.05;;;;;;;;;;10560986;28;20047;-85
2022/07/27 10:07:01;;;;;;;2.75;1.50;;;;;;;;;;10556180;28;20042;-86
2022/07/27 10:12:03;;;;;;;5.18;1.63;;;;;;;;;;10563842;28;20045;-86
2022/07/27 10:17:05;;;;;;;2.03;1.33;;;;;;;;;;10554541;28;20090;-83
2022/07/27 10:22:06;;;;;;;3.80;1.40;;;;;;;;;;10548973;28;20020;-84
2022/07/27 10:27:20;;;;;;;2.60;1.25;;;;;;;;;;10556043;28;20028;-85
2022/07/27 10:32:25;;;;;;;3.83;1.23;;;;;;;;;;10558566;28;20027;-84
2022/07/27 10:37:42;;;;;;;2.35;1.10;;;;;;;;;;10567222;28;20016;-84
2022/07/27 10:42:44;;;;;;;4.35;2.20;;;;;;;;;;10564574;22;20032;-82
2022/07/27 10:47:47;;;;;;;2.83;1.60;;;;;;;;;;10539286;28;20074;-82
2022/07/27 10:52:49;;;;;;;3.83;1.20;;;;;;;;;;10539844;28;20036;-83
2022/07/27 10:57:50;;;;;;;1.45;1.10;;;;;;;;;;10556122;28;20062;-83
2022/07/27 11:02:51;;;;;;;2.63;1.10;;;;;;;;;;10537892;28;20489;-83
2022/07/27 11:07:52;;;;;;;2.25;1.13;;;;;;;;;;10535734;28;20060;-83
2022/07/27 11:12:53;;;;;;;2.65;0.90;;;;;;;;;;10535886;28;20553;-83
2022/07/27 11:17:55;;;;;;;2.33;1.10;;;;;;;;;;10537007;28;20056;-83
2022/07/27 11:22:58;;;;;;;3.08;1.10;;;;;;;;;;10537572;28;20027;-81
2022/07/27 11:28:06;;;;;;;3.90;1.10;;;;;;;;;;10541597;28;20032;-84
2022/07/27 11:33:07;;;;;;;1.77;1.00;;;;;;;;;;10537762;28;20062;-83
2022/07/27 11:38:08;;;;;;;2.92;0.85;;;;;;;;;;10538108;28;20104;-83
2022/07/27 11:43:09;;;;;;;1.85;0.80;;;;;;;;;;10534305;28;20040;-84
2022/07/27 11:48:20;;;;;;;2.80;0.90;;;;;;;;;;10535948;28;20020;-84
2022/07/27 11:53:21;;;;;;;2.65;1.10;;;;;;;;;;10534241;28;20036;-84
2022/07/27 11:58:22;;;;;;;1.67;1.00;;;;;;;;;;10533075;28;20028;-84
2022/07/27 12:03:24;;;;;;;2.22;0.80;;;;;;;;;;10549144;28;20109;-84
2022/07/27 12:08:25;;;;;;;2.55;1.50;;;;;;;;;;10549782;28;20114;-83
2022/07/27 12:13:33;;;;;;;4.07;2.30;;;;;;;;;;10532193;28;20020;-83
2022/07/27 12:18:52;;;;;;;4.07;1.70;;;;;;;;;;10532444;28;20076;-84
2022/07/27 12:23:53;;;;;;;4.82;1.90;;;;;;;;;;10535630;28;20542;-82
2022/07/27 12:29:10;;;;;;;4.80;1.70;;;;;;;;;;10552590;28;20037;-81
2022/07/27 12:34:13;;;;;;;3.25;1.60;;;;;;;;;;10553662;28;20058;-82
2022/07/27 12:39:28;;;;;;;3.85;1.13;;;;;;;;;;10536461;28;20024;-81
2022/07/27 12:44:33;;;;;;;2.63;1.20;;;;;;;;;;10531520;28;20068;-82
2022/07/27 12:49:34;;;;;;;2.65;1.10;;;;;;;;;;10533263;28;20054;-82
2022/07/27 12:54:35;;;;;;;2.80;1.17;;;;;;;;;;10554291;28;20132;-82
2022/07/27 12:59:36;;;;;;;2.60;1.00;;;;;;;;;;10533578;28;20047;-82
2022/07/27 13:04:37;;;;;;;2.10;1.10;;;;;;;;;;10534163;28;20028;-83
2022/07/27 13:09:39;;;;;;;2.00;0.98;;;;;;;;;;10535841;28;20146;-83
2022/07/27 13:14:40;;;;;;;4.05;2.25;;;;;;;;;;10532238;28;20126;-82
2022/07/27 13:19:41;;;;;;;2.25;1.20;;;;;;;;;;10550634;28;20028;-82
2022/07/27 13:24:42;;;;;;;3.60;1.55;;;;;;;;;;10532831;28;20541;-82
2022/07/27 13:29:43;;;;;;;2.25;1.00;;;;;;;;;;10535702;28;20428;-81
2022/07/27 13:34:45;;;;;;;6.88;3.33;;;;;;;;;;10552623;28;20020;-82
2022/07/27 13:39:46;;;;;;;2.97;1.50;;;;;;;;;;10534651;28;20032;-82
2022/07/27 13:44:47;;;;;;;4.10;1.60;;;;;;;;;;10536023;28;20161;-82
2022/07/27 13:49:48;;;;;;;2.78;1.30;;;;;;;;;;10534940;28;20028;-82
2022/07/27 13:54:50;;;;;;;2.85;1.60;;;;;;;;;;10534156;28;20035;-81
2022/07/27 13:59:51;;;;;;;2.78;1.20;;;;;;;;;;10530086;28;20028;-82
2022/07/27 14:04:52;;;;;;;2.60;1.30;;;;;;;;;;10553642;28;20059;-81
2022/07/27 14:15:13;;;;;;;;;;;;;;;;;;10588968;28;20040;-79
2022/07/27 14:20:14;;;;;;;2.33;1.20;;;;;;;;;;10574972;28;19900;-81
2022/07/27 14:25:15;;;;;;;2.72;1.23;;;;;;;;;;10558375;28;20025;-81
2022/07/27 14:30:16;;;;;;;3.60;1.33;;;;;;;;;;10536823;28;20381;-80
2022/07/27 14:35:18;;;;;;;3.70;1.30;;;;;;;;;;10538940;28;20024;-81
2022/07/27 14:40:20;;;;;;;2.17;1.10;;;;;;;;;;10559620;28;20020;-81
2022/07/27 14:45:21;;;;;;;2.78;1.20;;;;;;;;;;10561407;28;20039;-80
2022/07/27 14:50:22;;;;;;;2.78;1.00;;;;;;;;;;10540186;28;20118;-81
2022/07/27 14:55:24;;;;;;;2.00;1.10;;;;;;;;;;10543542;28;20048;-81
2022/07/27 15:00:25;;;;;;;3.80;1.50;;;;;;;;;;10548171;28;20028;-82
2022/07/27 15:05:26;;;;;;;3.00;1.50;;;;;;;;;;10547428;28;20054;-80
2022/07/27 15:10:27;;;;;;;3.53;1.52;;;;;;;;;;10541208;28;20095;-79
2022/07/27 15:15:28;;;;;;;3.25;1.08;;;;;;;;;;10542774;28;20028;-79
2022/07/27 15:20:29;;;;;;;3.53;1.80;;;;;;;;;;10541284;28;20028;-78
2022/07/27 15:25:30;;;;;;;2.97;1.23;;;;;;;;;;10557178;28;20028;-80
2022/07/27 15:30:32;;;;;;;4.40;1.73;;;;;;;;;;10538047;28;20507;-81
2022/07/27 15:35:33;;;;;;;3.30;1.25;;;;;;;;;;10555900;28;20020;-79
2022/07/27 15:40:37;;;;;;;2.45;1.40;;;;;;;;;;10532727;28;20051;-81
2022/07/27 15:45:42;;;;;;;1.90;1.08;;;;;;;;;;10534986;28;20481;-80
2022/07/27 15:50:47;;;;;;;2.58;1.30;;;;;;;;;;10535214;28;20035;-80
2022/07/27 15:55:48;;;;;;;1.92;1.00;;;;;;;;;;10535089;28;20402;-82
2022/07/27 16:00:51;;;;;;;4.88;1.83;;;;;;;;;;10536160;28;20379;-81
2022/07/27 16:05:52;;;;;;;3.50;1.38;;;;;;;;;;10535781;28;20094;-81
2022/07/27 16:10:53;;;;;;;4.63;1.70;;;;;;;;;;10537492;28;20050;-82
2022/07/27 16:21:14;;;;;;;2.53;1.25;;;;;;;;;;10555723;28;20051;-80
2022/07/27 16:26:15;;;;;;;2.00;0.85;;;;;;;;;;10539328;28;20485;-81
2022/07/27 16:31:18;;;;;;;1.65;1.30;;;;;;;;;;10563267;28;20103;-80
